createdAt,value
2023-01-29T00:02:12.411Z,90.60
2023-01-29T00:04:41.569Z,80.70
2023-01-29T00:07:10.085Z,75.40
2023-01-29T00:09:41.653Z,65.60
2023-01-29T00:12:10.248Z,92.10
2023-01-29T00:14:39.031Z,104.40
2023-01-29T00:17:07.770Z,108.50
2023-01-29T00:19:36.880Z,110.90
2023-01-29T00:22:05.617Z,109.30
2023-01-29T00:24:34.311Z,88.60
2023-01-29T00:27:03.866Z,77.70
2023-01-29T00:29:33.002Z,55.50
2023-01-29T00:32:01.847Z,67.00
2023-01-29T00:34:33.179Z,60.90
2023-01-29T00:37:05.086Z,56.30
2023-01-29T00:39:47.494Z,49.20
2023-01-29T00:42:35.797Z,60.00
2023-01-29T00:45:06.707Z,49.50
2023-01-29T00:47:35.495Z,69.10
2023-01-29T00:50:05.887Z,57.60
2023-01-29T00:52:36.485Z,51.90
2023-01-29T00:55:05.575Z,53.80
2023-01-29T00:57:34.719Z,48.40
2023-01-29T01:00:04.680Z,48.80
2023-01-29T01:02:51.996Z,52.60
2023-01-29T01:05:20.353Z,36.70
2023-01-29T01:07:50.508Z,38.90
2023-01-29T01:10:22.638Z,47.50
2023-01-29T01:12:54.967Z,41.70
2023-01-29T01:15:25.809Z,44.10
2023-01-29T01:17:55.880Z,39.90
2023-01-29T01:20:25.811Z,43.70
2023-01-29T01:22:54.707Z,41.60
2023-01-29T01:25:24.257Z,33.40
2023-01-29T01:27:55.522Z,31.50
2023-01-29T01:30:24.103Z,40.00
2023-01-29T01:32:53.090Z,38.90
2023-01-29T01:35:23.278Z,42.50
2023-01-29T01:37:52.087Z,37.40
2023-01-29T01:40:23.225Z,57.20
2023-01-29T01:42:57.475Z,27.90
2023-01-29T01:45:34.812Z,29.50
2023-01-29T01:48:07.396Z,30.50
2023-01-29T01:50:49.228Z,46.80
2023-01-29T01:53:27.046Z,33.50
2023-01-29T01:55:57.942Z,40.60
2023-01-29T01:58:28.482Z,42.70
2023-01-29T02:00:56.918Z,40.20
2023-01-29T02:03:43.718Z,38.70
2023-01-29T02:06:31.068Z,41.90
2023-01-29T02:09:25.311Z,41.20
2023-01-29T02:11:54.154Z,48.60
2023-01-29T02:14:23.019Z,42.50
2023-01-29T02:16:52.389Z,47.90
2023-01-29T02:19:48.459Z,74.60
2023-01-29T02:22:45.214Z,66.30
2023-01-29T02:25:37.061Z,67.00
2023-01-29T02:28:16.539Z,66.40
2023-01-29T02:30:58.621Z,93.20
2023-01-29T02:34:10.096Z,67.30
2023-01-29T02:36:51.624Z,74.70
2023-01-29T02:39:24.797Z,73.00
2023-01-29T02:42:06.341Z,62.10
2023-01-29T02:44:50.691Z,51.70
2023-01-29T02:47:23.070Z,43.20
2023-01-29T02:50:07.078Z,69.10
2023-01-29T02:52:39.395Z,35.90
2023-01-29T02:55:33.689Z,40.50
2023-01-29T02:58:27.485Z,36.50
2023-01-29T03:00:56.881Z,30.70
2023-01-29T03:03:32.369Z,61.90
2023-01-29T03:06:12.269Z,49.90
2023-01-29T03:09:08.205Z,63.90
2023-01-29T03:11:42.974Z,58.60
2023-01-29T03:14:16.969Z,53.80
2023-01-29T03:16:53.483Z,78.00
2023-01-29T03:19:22.929Z,54.10
2023-01-29T03:21:59.543Z,39.10
2023-01-29T03:24:56.833Z,50.20
2023-01-29T03:27:47.388Z,32.00
2023-01-29T03:30:35.484Z,22.00
2023-01-29T03:33:22.693Z,16.20
2023-01-29T03:36:01.040Z,21.50
2023-01-29T03:38:32.002Z,25.60
2023-01-29T03:41:28.666Z,30.50
2023-01-29T03:44:26.590Z,31.00
2023-01-29T03:46:59.710Z,25.10
2023-01-29T03:49:39.489Z,49.00
2023-01-29T03:52:18.198Z,28.70
2023-01-29T03:55:01.620Z,27.30
2023-01-29T03:57:45.930Z,20.70
2023-01-29T09:18:54.842Z,96.90
2023-01-29T09:21:22.022Z,60.90
2023-01-29T09:23:49.441Z,81.60
2023-01-29T09:26:19.328Z,55.20
2023-01-29T09:28:46.828Z,62.00
2023-01-29T09:31:14.050Z,104.00
2023-01-29T09:33:41.451Z,112.50
2023-01-29T09:36:09.157Z,88.70
2023-01-29T09:38:36.981Z,54.60
2023-01-29T09:41:18.915Z,65.40
2023-01-29T09:43:55.184Z,40.20
2023-01-29T09:46:23.449Z,82.60
2023-01-29T09:49:06.192Z,111.90
2023-01-29T09:51:37.953Z,98.80
2023-01-29T09:54:21.283Z,83.30
2023-01-29T09:56:48.951Z,92.90
2023-01-29T09:59:16.524Z,92.60
2023-01-29T10:01:50.212Z,129.10
2023-01-29T10:04:36.978Z,87.40
2023-01-29T10:07:15.926Z,58.80
2023-01-29T10:10:02.216Z,99.50
2023-01-29T10:13:02.586Z,55.80
2023-01-29T10:15:52.620Z,75.30
2023-01-29T10:18:47.724Z,42.60
2023-01-29T10:21:43.070Z,42.20
2023-01-29T10:24:19.309Z,60.80
2023-01-29T10:26:46.586Z,31.90
2023-01-29T10:29:17.910Z,66.40
2023-01-29T10:31:46.575Z,81.60
2023-01-29T10:34:26.392Z,74.20
2023-01-29T10:36:53.734Z,72.90
2023-01-29T10:39:23.452Z,54.20
2023-01-29T10:42:20.656Z,65.70
2023-01-29T10:45:03.116Z,63.70
2023-01-29T10:47:40.106Z,41.80
2023-01-29T10:50:29.444Z,61.90
2023-01-29T10:53:17.918Z,75.30
2023-01-29T10:56:23.126Z,48.70
2023-01-29T10:58:53.498Z,49.30
2023-01-29T11:01:21.102Z,73.10
2023-01-29T11:03:58.183Z,69.50
2023-01-29T11:06:35.376Z,121.40
2023-01-29T11:09:15.253Z,50.10
2023-01-29T11:12:02.841Z,80.60
2023-01-29T11:14:41.752Z,48.90
2023-01-29T11:17:23.584Z,51.90
2023-01-29T11:19:51.889Z,70.10
2023-01-29T11:22:26.820Z,52.90
2023-01-29T11:25:21.049Z,60.00
2023-01-29T11:27:53.117Z,79.50
2023-01-29T11:30:24.329Z,69.00
2023-01-29T11:33:07.931Z,64.50
2023-01-29T11:35:36.225Z,53.30
2023-01-29T11:38:10.049Z,36.80
2023-01-29T11:40:39.027Z,36.40
2023-01-29T11:43:30.867Z,31.60
2023-01-29T11:46:12.341Z,24.90
2023-01-29T11:48:41.274Z,35.20
2023-01-29T11:51:11.193Z,40.70
2023-01-29T11:53:40.858Z,21.60
2023-01-29T11:56:23.613Z,24.60
2023-01-29T11:58:51.269Z,29.50
2023-01-29T12:01:27.824Z,34.90
2023-01-29T12:03:55.245Z,40.30
2023-01-29T12:06:23.887Z,37.10
2023-01-29T12:08:57.562Z,34.50
2023-01-29T12:11:34.778Z,26.90
2023-01-29T12:14:04.559Z,41.50
2023-01-29T12:16:40.275Z,41.30
2023-01-29T12:19:25.317Z,51.60
2023-01-29T12:21:57.824Z,42.70
2023-01-29T12:24:33.374Z,35.00
2023-01-29T12:27:25.321Z,39.20
2023-01-29T12:29:59.239Z,26.30
2023-01-29T12:32:55.171Z,36.20
2023-01-29T12:35:47.208Z,29.90
2023-01-29T12:38:18.840Z,30.80
2023-01-29T12:40:54.788Z,33.90
2023-01-29T12:43:34.815Z,23.60
2023-01-29T12:46:02.131Z,42.90
2023-01-29T12:48:30.940Z,93.60
2023-01-29T12:51:07.542Z,40.80
2023-01-29T12:53:37.777Z,49.70
2023-01-29T12:56:11.862Z,32.20
2023-01-29T12:58:49.702Z,37.30
2023-01-29T13:01:23.287Z,27.20
2023-01-29T13:04:01.588Z,26.60
2023-01-29T13:06:50.794Z,35.60
2023-01-29T13:09:27.286Z,39.30
2023-01-29T13:12:08.848Z,34.20
2023-01-29T13:14:36.041Z,30.80
2023-01-29T13:17:31.056Z,28.10
2023-01-29T13:20:01.232Z,46.10
2023-01-29T13:22:31.200Z,35.80
2023-01-29T13:25:05.247Z,34.30
2023-01-29T13:27:34.120Z,31.10
2023-01-29T13:30:01.844Z,28.10
2023-01-29T13:32:33.778Z,36.10
2023-01-29T13:35:03.942Z,44.50
2023-01-29T13:37:36.184Z,36.80
2023-01-29T13:40:05.638Z,23.00
2023-01-29T13:42:48.091Z,32.00
2023-01-29T13:45:28.601Z,31.30
2023-01-29T13:48:23.433Z,34.40
2023-01-29T13:50:51.191Z,33.10
2023-01-29T13:53:26.677Z,33.50
2023-01-29T13:55:54.032Z,29.80
2023-01-29T13:58:33.579Z,31.00
2023-01-29T14:01:01.756Z,25.00
2023-01-29T14:03:45.043Z,28.40
2023-01-29T14:06:43.175Z,30.70
2023-01-29T14:09:41.176Z,29.60
2023-01-29T14:12:24.048Z,27.90
2023-01-29T14:14:54.480Z,26.30
2023-01-29T14:17:22.504Z,33.20
2023-01-29T14:19:51.307Z,34.60
2023-01-29T14:22:23.658Z,41.00
2023-01-29T14:24:53.743Z,32.90
2023-01-29T15:03:42.260Z,58.50
2023-01-29T15:06:16.743Z,43.30
2023-01-29T15:08:53.950Z,39.40
2023-01-29T15:11:44.631Z,32.90
2023-01-29T15:14:17.042Z,36.10
2023-01-29T15:16:54.095Z,56.60
2023-01-29T15:19:36.246Z,70.60
2023-01-29T15:22:30.577Z,54.20
2023-01-29T15:25:08.087Z,44.50
2023-01-29T15:27:38.269Z,125.60
2023-01-29T15:30:08.566Z,121.90
2023-01-29T15:32:38.074Z,83.80
2023-01-29T15:35:12.091Z,76.30
2023-01-29T15:37:41.319Z,68.10
2023-01-29T15:40:14.884Z,77.90
2023-01-29T15:42:46.983Z,97.80
2023-01-29T15:45:31.468Z,69.80
2023-01-29T15:48:07.788Z,50.90
2023-01-29T15:50:39.814Z,49.30
2023-01-29T15:53:20.364Z,54.60
2023-01-29T15:55:51.849Z,63.30
2023-01-29T15:58:24.216Z,37.00
2023-01-29T16:00:54.905Z,49.80
2023-01-29T16:03:24.889Z,46.00
2023-01-29T16:05:53.835Z,29.40
2023-01-29T16:08:24.252Z,44.00
2023-01-29T16:10:55.766Z,46.10
2023-01-29T16:13:27.008Z,36.40
2023-01-29T16:16:03.502Z,35.90
2023-01-29T16:18:42.870Z,30.90
2023-01-29T16:21:23.187Z,27.10
2023-01-29T16:23:58.778Z,40.10
2023-01-29T16:26:35.466Z,64.10
2023-01-29T16:29:12.554Z,43.60
2023-01-29T16:31:41.333Z,50.00
2023-01-29T16:34:23.508Z,50.40
2023-01-29T16:36:53.562Z,52.00
2023-01-29T16:39:27.895Z,59.70
2023-01-29T16:42:20.260Z,36.40
2023-01-29T16:47:41.808Z,40.60
2023-01-29T16:50:23.271Z,45.70
2023-01-29T16:52:59.347Z,47.40
2023-01-29T16:55:33.483Z,32.60
2023-01-29T16:58:04.803Z,34.60
2023-01-29T17:00:33.878Z,30.70
2023-01-29T17:03:05.302Z,50.60
2023-01-29T17:05:37.313Z,34.10
2023-01-29T17:08:06.878Z,28.00
2023-01-29T17:10:36.606Z,66.50
2023-01-29T17:13:07.394Z,38.80
2023-01-29T17:15:45.228Z,35.10
2023-01-29T17:18:24.676Z,40.20
2023-01-29T17:20:54.039Z,41.30
2023-01-29T17:23:23.596Z,46.70
2023-01-29T17:25:52.344Z,32.50
2023-01-29T17:28:22.286Z,51.60
2023-01-29T17:31:05.289Z,88.60
2023-01-29T17:33:36.192Z,127.50
2023-01-29T17:36:05.460Z,18.40
2023-01-29T17:38:36.067Z,14.40
2023-01-29T17:41:25.502Z,20.90
2023-01-29T17:43:55.042Z,19.00
2023-01-29T17:46:23.780Z,18.40
2023-01-29T17:48:53.163Z,19.70
2023-01-29T17:51:24.658Z,18.20
2023-01-29T17:53:54.035Z,23.00
2023-01-29T17:56:27.947Z,28.20
2023-01-29T17:58:57.226Z,53.80
2023-01-29T18:01:26.138Z,43.40
2023-01-29T18:03:55.312Z,50.60
2023-01-29T18:06:29.072Z,27.00
2023-01-29T18:08:58.816Z,48.60
2023-01-29T18:11:28.724Z,41.40
2023-01-29T18:13:58.130Z,37.60
2023-01-29T18:16:27.511Z,45.60
2023-01-29T18:18:57.508Z,61.60
2023-01-29T18:21:26.998Z,35.10
2023-01-29T18:23:59.255Z,42.60
2023-01-29T18:28:57.401Z,38.30
2023-01-29T18:31:26.347Z,30.40
2023-01-29T18:33:55.276Z,32.20
2023-01-29T18:36:24.361Z,45.80
2023-01-29T18:38:54.567Z,46.70
2023-01-29T18:41:23.975Z,22.10
2023-01-29T18:43:54.408Z,20.60
2023-01-29T18:46:24.683Z,24.90
2023-01-29T18:48:54.635Z,44.30
2023-01-29T18:51:23.541Z,79.00
2023-01-29T18:53:55.464Z,27.00
2023-01-29T18:56:24.866Z,21.70
2023-01-29T18:58:55.400Z,46.30
2023-01-29T19:01:25.285Z,36.90
2023-01-29T19:03:54.446Z,25.40
2023-01-29T19:06:23.363Z,30.00
2023-01-29T19:08:52.418Z,31.90
2023-01-29T19:11:21.600Z,30.80
2023-01-29T19:13:51.617Z,32.60
2023-01-29T19:16:20.644Z,31.40
2023-01-29T19:18:49.881Z,28.00
2023-01-29T19:21:19.056Z,31.10
2023-01-29T19:23:48.310Z,24.80
2023-01-29T19:26:17.705Z,26.10
2023-01-29T19:28:46.426Z,22.70
2023-01-29T19:31:16.791Z,34.70
2023-01-29T19:33:46.564Z,33.50
2023-01-29T19:36:15.644Z,36.40
2023-01-29T19:38:44.627Z,19.00
2023-01-29T19:41:13.515Z,28.70
2023-01-29T19:43:43.283Z,27.90
2023-01-29T19:46:12.213Z,33.00
2023-01-29T19:48:41.018Z,25.20
2023-01-29T19:51:10.688Z,33.70
2023-01-29T19:53:39.770Z,20.40
2023-01-29T19:56:12.762Z,24.50
2023-01-29T19:58:41.123Z,18.10
2023-01-29T20:01:16.820Z,17.60
2023-01-29T20:03:47.179Z,21.30
2023-01-29T20:06:17.835Z,14.10
2023-01-29T20:08:47.850Z,16.70
2023-01-29T20:11:20.156Z,15.10
2023-01-29T20:13:50.307Z,34.50
2023-01-29T20:16:19.839Z,16.10
2023-01-29T20:18:49.720Z,20.00
2023-01-29T20:21:22.936Z,22.80
2023-01-29T20:23:52.352Z,27.20
2023-01-29T20:26:22.244Z,22.40
2023-01-29T20:28:51.945Z,21.60
2023-01-29T20:31:21.159Z,31.00
2023-01-29T20:33:50.868Z,25.00
2023-01-29T20:36:20.297Z,33.20
2023-01-29T20:38:49.305Z,20.70
2023-01-29T20:41:19.619Z,19.80
2023-01-29T20:43:50.716Z,27.40
2023-01-29T20:46:19.796Z,20.40
2023-01-29T20:48:53.735Z,22.70
2023-01-29T20:51:22.488Z,22.30
2023-01-29T20:53:51.850Z,28.80
2023-01-29T20:56:32.030Z,28.50
2023-01-29T20:59:06.600Z,27.20
2023-01-29T21:01:35.732Z,22.70
2023-01-29T21:04:04.594Z,31.10
2023-01-29T21:06:33.811Z,29.00
2023-01-29T21:09:04.606Z,32.70
2023-01-29T21:11:35.545Z,26.80
2023-01-29T21:14:05.214Z,26.40
2023-01-29T21:16:34.665Z,20.60
2023-01-29T21:19:03.866Z,24.20
2023-01-29T21:21:33.462Z,22.90
2023-01-29T21:24:02.801Z,21.60
2023-01-29T21:26:32.997Z,15.90
2023-01-29T21:29:01.740Z,22.60
2023-01-29T21:31:30.786Z,17.90
2023-01-29T21:33:59.752Z,23.20
2023-01-29T21:36:28.550Z,25.10
2023-01-29T21:38:57.702Z,20.40
2023-01-29T21:41:46.179Z,24.10
2023-01-29T21:44:15.923Z,16.40
2023-01-29T21:46:44.779Z,18.70
2023-01-29T21:49:13.650Z,20.70
2023-01-29T21:51:42.992Z,18.20
2023-01-29T21:54:11.752Z,15.50
2023-01-29T21:56:41.164Z,16.50
2023-01-29T21:59:11.729Z,16.80
2023-01-29T22:01:41.773Z,15.80
2023-01-29T22:04:11.778Z,15.90
2023-01-29T22:06:40.536Z,19.30
2023-01-29T22:09:09.445Z,18.70
2023-01-29T22:11:38.812Z,21.30
2023-01-29T22:14:08.461Z,17.90
2023-01-29T22:16:38.280Z,22.70
2023-01-29T22:19:06.879Z,21.90
2023-01-29T22:21:36.027Z,21.20
2023-01-29T22:24:08.251Z,23.10
2023-01-29T22:26:37.036Z,23.80
2023-01-29T22:29:05.239Z,30.40
2023-01-29T22:31:33.826Z,49.50
2023-01-29T22:34:02.722Z,35.50
2023-01-29T22:36:32.931Z,33.70
2023-01-29T22:39:02.140Z,40.40
2023-01-29T22:41:31.252Z,32.80
2023-01-29T22:44:00.920Z,25.90
2023-01-29T22:46:29.830Z,18.70
2023-01-29T22:48:58.381Z,29.80
2023-01-29T22:51:27.275Z,45.80
2023-01-29T22:53:56.684Z,67.60
2023-01-29T22:56:30.709Z,43.70
2023-01-29T22:59:00.006Z,82.50
2023-01-29T23:01:30.336Z,54.90
2023-01-29T23:04:01.572Z,30.90
2023-01-29T23:06:31.052Z,21.70
2023-01-29T23:09:00.499Z,20.60
2023-01-29T23:11:29.431Z,21.40
2023-01-29T23:13:59.549Z,22.30
2023-01-29T23:16:28.514Z,18.30
2023-01-29T23:18:57.508Z,23.30
2023-01-29T23:21:27.939Z,19.20
2023-01-29T23:23:58.641Z,20.50
2023-01-29T23:29:16.723Z,16.70
2023-01-29T23:31:45.540Z,19.60
2023-01-29T23:34:14.489Z,25.30
2023-01-29T23:36:43.157Z,23.50
2023-01-29T23:39:11.708Z,23.00
2023-01-29T23:41:40.346Z,26.50
2023-01-29T23:44:10.021Z,25.30
2023-01-29T23:46:40.212Z,23.80
2023-01-29T23:49:09.237Z,24.80
2023-01-29T23:51:38.600Z,29.70
2023-01-29T23:54:07.359Z,38.80
2023-01-29T23:56:36.299Z,28.90
2023-01-29T23:59:10.198Z,31.50
